Time;durP1;ratioP1;P1;durP2;ratioP2;P2;SDS_P1;SDS_P2;PMS_P1;PMS_P2;Temp;Humidity;BMP_temperature;BMP_pressure;BME280_temperature;BME280_humidity;BME280_pressure;Samples;Min_cycle;Max_cycle;Signal;HPM_P1;HPM_P2
2022/01/22 00:01:13;;;;;;;11.18;6.22;;;;;;;;;;5039481;28;20048;-70
2022/01/22 00:03:39;;;;;;;8.98;5.15;;;;;;;;;;5063485;28;20458;-70
2022/01/22 00:06:05;;;;;;;10.00;5.43;;;;;;;;;;5064361;28;20067;-70
2022/01/22 00:08:31;;;;;;;9.93;5.55;;;;;;;;;;5056697;28;20075;-71
2022/01/22 00:10:57;;;;;;;9.00;5.85;;;;;;;;;;5068791;28;20052;-71
2022/01/22 00:16:08;;;;;;;10.73;5.93;;;;;;;;;;5054985;28;20052;-71
2022/01/22 00:18:34;;;;;;;11.00;5.88;;;;;;;;;;5068099;28;20455;-70
2022/01/22 00:21:00;;;;;;;9.30;5.63;;;;;;;;;;5051026;28;20548;-70
2022/01/22 00:23:28;;;;;;;13.45;6.68;;;;;;;;;;5040088;28;20059;-71
2022/01/22 00:25:54;;;;;;;16.17;7.53;;;;;;;;;;5061677;28;20021;-71
2022/01/22 00:28:21;;;;;;;7.32;4.90;;;;;;;;;;5065981;28;20047;-70
2022/01/22 00:30:47;;;;;;;6.70;4.32;;;;;;;;;;5037102;28;20596;-71
2022/01/22 00:33:16;;;;;;;8.10;4.80;;;;;;;;;;5066397;28;20021;-71
2022/01/22 00:35:42;;;;;;;5.22;3.67;;;;;;;;;;5060525;28;20020;-71
2022/01/22 00:38:08;;;;;;;6.85;3.80;;;;;;;;;;5059059;28;20025;-71
2022/01/22 00:40:33;;;;;;;11.50;4.88;;;;;;;;;;5067534;28;20482;-70
2022/01/22 00:42:59;;;;;;;7.45;4.38;;;;;;;;;;5054622;28;20096;-71
2022/01/22 00:45:25;;;;;;;5.88;3.78;;;;;;;;;;5064953;28;20013;-71
2022/01/22 00:47:52;;;;;;;6.03;3.42;;;;;;;;;;5043850;28;20078;-70
2022/01/22 00:50:19;;;;;;;8.10;4.40;;;;;;;;;;5056157;28;20014;-71
2022/01/22 00:52:46;;;;;;;5.70;3.38;;;;;;;;;;5060744;28;20063;-69
2022/01/22 00:55:12;;;;;;;6.72;3.67;;;;;;;;;;5053723;28;20064;-70
2022/01/22 00:57:38;;;;;;;7.70;4.50;;;;;;;;;;5047056;28;20036;-70
2022/01/22 01:00:05;;;;;;;5.60;3.03;;;;;;;;;;5040490;28;20060;-70
2022/01/22 01:02:32;;;;;;;7.43;3.47;;;;;;;;;;5034950;28;20018;-71
2022/01/22 01:04:57;;;;;;;9.02;4.53;;;;;;;;;;5037084;28;20487;-70
2022/01/22 01:07:23;;;;;;;5.45;3.10;;;;;;;;;;5046363;28;20040;-71
2022/01/22 01:09:49;;;;;;;7.38;3.25;;;;;;;;;;5047944;28;20016;-71
2022/01/22 01:12:15;;;;;;;6.80;3.55;;;;;;;;;;5058021;28;20021;-71
2022/01/22 01:14:52;;;;;;;4.53;2.78;;;;;;;;;;5041237;28;20484;-71
2022/01/22 01:17:45;;;;;;;7.95;3.33;;;;;;;;;;5034643;28;20344;-71
2022/01/22 01:32:10;;;;;;;4.55;2.72;;;;;;;;;;5041124;28;20450;-71
2022/01/22 01:34:14;;;;;;;3.50;2.60;;;;;;;;;;5045357;28;20095;-71
2022/01/22 01:36:41;;;;;;;6.53;2.83;;;;;;;;;;5055897;28;20477;-71
2022/01/22 01:39:13;;;;;;;5.25;3.08;;;;;;;;;;5068081;28;20029;-71
2022/01/22 01:44:12;;;;;;;6.50;3.10;;;;;;;;;;5055817;28;20029;-71
2022/01/22 01:46:45;;;;;;;3.45;2.75;;;;;;;;;;5040963;28;20026;-71
2022/01/22 01:49:11;;;;;;;6.00;3.20;;;;;;;;;;5057796;28;20041;-71
2022/01/22 01:51:37;;;;;;;5.90;3.70;;;;;;;;;;5051688;28;20049;-71
2022/01/22 01:59:33;;;;;;;4.50;2.85;;;;;;;;;;5070608;28;20076;-72
2022/01/22 02:01:59;;;;;;;4.93;2.90;;;;;;;;;;5067945;28;20108;-71
2022/01/22 02:04:25;;;;;;;4.32;2.85;;;;;;;;;;5059236;28;20025;-71
2022/01/22 02:06:50;;;;;;;6.50;3.38;;;;;;;;;;5070913;28;20533;-71
2022/01/22 02:09:16;;;;;;;6.43;3.10;;;;;;;;;;5041737;28;20024;-71
2022/01/22 02:11:44;;;;;;;4.88;2.85;;;;;;;;;;5065359;28;20088;-70
2022/01/22 02:25:20;;;;;;;5.40;2.90;;;;;;;;;;5045921;28;20074;-70
2022/01/22 02:27:46;;;;;;;3.53;2.17;;;;;;;;;;5046749;28;20017;-70
2022/01/22 02:30:19;;;;;;;2.75;2.30;;;;;;;;;;5049125;28;20031;-70
2022/01/22 02:33:06;;;;;;;2.88;2.05;;;;;;;;;;5056904;28;20063;-68
2022/01/22 02:35:45;;;;;;;3.72;2.20;;;;;;;;;;5066475;28;20096;-69
2022/01/22 02:38:17;;;;;;;3.15;1.92;;;;;;;;;;5066758;28;20052;-69
2022/01/22 02:40:47;;;;;;;5.82;2.50;;;;;;;;;;5057178;28;20028;-69
2022/01/22 02:43:13;;;;;;;5.63;2.83;;;;;;;;;;5054451;28;20028;-70
2022/01/22 02:45:40;;;;;;;3.05;2.00;;;;;;;;;;5065201;28;20036;-70
2022/01/22 02:48:06;;;;;;;3.08;1.90;;;;;;;;;;5047884;28;20017;-72
2022/01/22 02:50:32;;;;;;;1.95;1.75;;;;;;;;;;5057782;28;20494;-69
2022/01/22 02:53:02;;;;;;;6.00;2.75;;;;;;;;;;5069679;28;20485;-71
2022/01/22 02:55:28;;;;;;;5.60;2.60;;;;;;;;;;5060312;28;20095;-69
2022/01/22 02:57:54;;;;;;;3.13;2.15;;;;;;;;;;5063552;28;20499;-70
2022/01/22 03:00:22;;;;;;;2.80;2.10;;;;;;;;;;5068017;28;20035;-70
2022/01/22 03:02:49;;;;;;;2.28;1.80;;;;;;;;;;5039183;28;20025;-70
2022/01/22 03:05:15;;;;;;;2.50;1.90;;;;;;;;;;5068123;28;20118;-71
2022/01/22 03:07:44;;;;;;;3.00;2.13;;;;;;;;;;5062261;28;20017;-72
2022/01/22 03:10:14;;;;;;;3.50;1.98;;;;;;;;;;5060463;28;20025;-71
2022/01/22 03:18:18;;;;;;;5.22;2.20;;;;;;;;;;5062758;28;20110;-71
2022/01/22 03:28:51;;;;;;;4.80;3.45;;;;;;;;;;5069381;28;20028;-72
2022/01/22 03:31:17;;;;;;;5.90;3.90;;;;;;;;;;5058080;28;20012;-71
2022/01/22 03:33:43;;;;;;;6.00;3.92;;;;;;;;;;5063352;28;20031;-71
2022/01/22 03:36:11;;;;;;;4.82;3.58;;;;;;;;;;5065096;28;20028;-71
2022/01/22 03:38:37;;;;;;;4.95;3.25;;;;;;;;;;5056026;28;20128;-71
2022/01/22 03:41:03;;;;;;;7.20;3.90;;;;;;;;;;5069099;28;20025;-71
2022/01/22 03:43:29;;;;;;;6.63;4.00;;;;;;;;;;5041366;28;20560;-71
2022/01/22 03:45:55;;;;;;;6.00;4.05;;;;;;;;;;5061985;28;20551;-72
2022/01/22 03:48:21;;;;;;;6.78;4.35;;;;;;;;;;5066609;28;20025;-70
2022/01/22 03:50:49;;;;;;;9.13;4.55;;;;;;;;;;5055725;28;20028;-71
2022/01/22 03:53:15;;;;;;;7.85;4.35;;;;;;;;;;5066716;28;20039;-72
2022/01/22 03:58:10;;;;;;;10.80;5.35;;;;;;;;;;5059618;28;20040;-71
2022/01/22 04:00:36;;;;;;;12.73;5.32;;;;;;;;;;5068497;28;20050;-71
2022/01/22 04:06:06;;;;;;;4.55;2.45;;;;;;;;;;5062658;28;20087;-71
2022/01/22 04:08:32;;;;;;;4.85;2.35;;;;;;;;;;5067864;28;20024;-71
2022/01/22 04:10:58;;;;;;;3.72;1.98;;;;;;;;;;5055150;28;20035;-71
2022/01/22 04:13:31;;;;;;;3.40;2.35;;;;;;;;;;5065198;28;20103;-71
2022/01/22 04:15:57;;;;;;;2.10;1.80;;;;;;;;;;5062785;28;20033;-71
2022/01/22 04:29:23;;;;;;;8.23;4.57;;;;;;;;;;5043906;28;20027;-70
2022/01/22 04:31:49;;;;;;;11.20;6.03;;;;;;;;;;5061647;28;20079;-70
2022/01/22 04:34:15;;;;;;;12.75;7.43;;;;;;;;;;5064615;28;20024;-70
2022/01/22 04:36:41;;;;;;;13.70;6.97;;;;;;;;;;5037030;28;20461;-71
2022/01/22 04:39:07;;;;;;;11.40;6.47;;;;;;;;;;5067580;28;20036;-71
2022/01/22 04:41:33;;;;;;;12.73;6.90;;;;;;;;;;5059343;28;20028;-70
2022/01/22 04:44:02;;;;;;;8.57;5.32;;;;;;;;;;5070582;28;20027;-70
2022/01/22 04:49:14;;;;;;;;;;;;;;;;;;5040872;28;20066;-71
2022/01/22 04:57:09;;;;;;;8.20;4.40;;;;;;;;;;5040238;28;20036;-71
2022/01/22 04:59:35;;;;;;;5.15;3.40;;;;;;;;;;5063534;28;20025;-70
2022/01/22 05:02:01;;;;;;;4.63;2.67;;;;;;;;;;5062621;28;20051;-71
2022/01/22 05:04:27;;;;;;;3.40;2.15;;;;;;;;;;5055808;28;20029;-70
2022/01/22 05:06:53;;;;;;;3.80;2.28;;;;;;;;;;5067692;28;20025;-71
2022/01/22 05:09:19;;;;;;;4.10;2.20;;;;;;;;;;5039047;28;20075;-69
2022/01/22 05:11:45;;;;;;;2.30;1.73;;;;;;;;;;5044275;28;20108;-72
2022/01/22 05:14:11;;;;;;;1.98;1.52;;;;;;;;;;5064579;28;20138;-71
2022/01/22 05:16:38;;;;;;;4.38;1.90;;;;;;;;;;5055218;28;20033;-71
2022/01/22 05:19:12;;;;;;;2.95;1.30;;;;;;;;;;5021476;28;20055;-71
2022/01/22 05:21:39;;;;;;;3.30;2.33;;;;;;;;;;5063910;28;20051;-70
2022/01/22 05:24:13;;;;;;;5.93;2.30;;;;;;;;;;5062932;28;20017;-70
2022/01/22 05:37:05;;;;;;;6.18;2.63;;;;;;;;;;5067776;28;20029;-71
2022/01/22 05:39:32;;;;;;;2.92;1.92;;;;;;;;;;5044299;28;20531;-72
2022/01/22 05:41:59;;;;;;;2.60;1.70;;;;;;;;;;5046265;28;20044;-71
2022/01/22 05:44:25;;;;;;;4.43;2.00;;;;;;;;;;5069395;28;20486;-71
2022/01/22 05:46:54;;;;;;;3.97;2.50;;;;;;;;;;5058370;28;20438;-71
2022/01/22 05:49:22;;;;;;;3.08;2.17;;;;;;;;;;5068917;28;20425;-71
2022/01/22 05:51:50;;;;;;;6.93;3.13;;;;;;;;;;5064318;28;20468;-70
2022/01/22 05:59:39;;;;;;;5.28;2.80;;;;;;;;;;5066097;28;20051;-66
2022/01/22 06:02:13;;;;;;;4.18;3.08;;;;;;;;;;5066412;28;20029;-66
2022/01/22 06:04:39;;;;;;;4.47;2.33;;;;;;;;;;5057613;28;20523;-69
2022/01/22 06:07:05;;;;;;;3.58;2.33;;;;;;;;;;5071175;28;20021;-68
2022/01/22 06:09:32;;;;;;;5.30;3.00;;;;;;;;;;5044194;28;20052;-68
2022/01/22 06:14:34;;;;;;;3.00;2.40;;;;;;;;;;5070157;28;20040;-69
2022/01/22 06:17:00;;;;;;;5.55;3.22;;;;;;;;;;5057727;28;20470;-69
2022/01/22 06:19:26;;;;;;;4.65;2.90;;;;;;;;;;5067848;28;20074;-68
2022/01/22 06:21:53;;;;;;;6.50;3.15;;;;;;;;;;5064196;28;20020;-68
2022/01/22 06:24:22;;;;;;;9.07;3.42;;;;;;;;;;5059815;28;20027;-69
2022/01/22 06:26:48;;;;;;;8.55;4.00;;;;;;;;;;5070580;28;20099;-69
2022/01/22 06:29:15;;;;;;;7.72;3.65;;;;;;;;;;5059264;28;20021;-68
2022/01/22 06:31:41;;;;;;;12.05;4.15;;;;;;;;;;5065081;28;20017;-69
2022/01/22 06:34:07;;;;;;;11.27;4.88;;;;;;;;;;5065642;28;20028;-68
2022/01/22 06:36:33;;;;;;;11.10;4.65;;;;;;;;;;5057994;28;20028;-68
2022/01/22 06:39:11;;;;;;;11.75;4.78;;;;;;;;;;5070002;28;20384;-68
2022/01/22 06:41:47;;;;;;;7.22;4.38;;;;;;;;;;5061862;28;20390;-68
2022/01/22 06:44:15;;;;;;;11.65;4.60;;;;;;;;;;5072558;28;20049;-69
2022/01/22 06:46:42;;;;;;;9.77;4.72;;;;;;;;;;5056801;28;20025;-68
2022/01/22 06:49:08;;;;;;;10.57;4.75;;;;;;;;;;5068514;28;20049;-70
2022/01/22 06:51:34;;;;;;;11.15;4.53;;;;;;;;;;5061278;28;20390;-68
2022/01/22 06:54:01;;;;;;;10.77;4.68;;;;;;;;;;5061747;28;20131;-69
2022/01/22 06:56:29;;;;;;;7.63;4.80;;;;;;;;;;5068321;28;20021;-69
2022/01/22 06:58:55;;;;;;;6.97;3.60;;;;;;;;;;5056340;28;20167;-68
2022/01/22 07:01:21;;;;;;;7.60;4.68;;;;;;;;;;5066985;28;20024;-68
2022/01/22 07:03:47;;;;;;;8.95;4.00;;;;;;;;;;5062497;28;20494;-68
2022/01/22 07:06:13;;;;;;;7.40;4.22;;;;;;;;;;5059998;28;20390;-68
2022/01/22 07:08:39;;;;;;;10.68;4.80;;;;;;;;;;5069547;28;20028;-68
2022/01/22 07:11:06;;;;;;;9.55;4.32;;;;;;;;;;5056820;28;20016;-69
2022/01/22 07:13:32;;;;;;;7.35;4.43;;;;;;;;;;5065055;28;20067;-68
2022/01/22 07:15:58;;;;;;;10.23;4.38;;;;;;;;;;5063853;28;20024;-68
2022/01/22 07:18:24;;;;;;;7.55;4.80;;;;;;;;;;5040244;28;20092;-69
2022/01/22 07:20:51;;;;;;;8.70;4.85;;;;;;;;;;5069333;28;20060;-66
2022/01/22 07:26:03;;;;;;;9.00;5.30;;;;;;;;;;5058242;28;20120;-66
2022/01/22 07:28:29;;;;;;;8.25;5.07;;;;;;;;;;5065014;28;20029;-67
2022/01/22 07:30:55;;;;;;;8.95;4.68;;;;;;;;;;5056192;28;20372;-68
2022/01/22 07:33:21;;;;;;;10.52;4.72;;;;;;;;;;5066448;28;20021;-68
2022/01/22 07:35:48;;;;;;;8.77;4.43;;;;;;;;;;5062119;28;20020;-68
2022/01/22 07:38:14;;;;;;;9.77;4.28;;;;;;;;;;5059269;28;20061;-67
2022/01/22 07:40:40;;;;;;;8.65;4.65;;;;;;;;;;5069018;28;20512;-68
2022/01/22 07:43:06;;;;;;;12.23;5.32;;;;;;;;;;5056021;28;20066;-67
2022/01/22 07:45:32;;;;;;;8.63;4.40;;;;;;;;;;5065196;28;20539;-68
2022/01/22 07:47:58;;;;;;;12.77;5.32;;;;;;;;;;5045717;28;20119;-66
2022/01/22 07:50:24;;;;;;;8.63;4.50;;;;;;;;;;5070414;28;20339;-68
2022/01/22 07:52:50;;;;;;;7.57;4.95;;;;;;;;;;5054318;28;20054;-67
2022/01/22 07:55:19;;;;;;;8.23;5.20;;;;;;;;;;5066846;28;20379;-68
2022/01/22 07:57:45;;;;;;;9.35;4.40;;;;;;;;;;5061565;28;20056;-69
2022/01/22 08:00:11;;;;;;;10.13;5.10;;;;;;;;;;5059325;28;20490;-69
2022/01/22 08:02:37;;;;;;;8.73;4.32;;;;;;;;;;5068249;28;20075;-71
2022/01/22 08:05:04;;;;;;;11.25;4.93;;;;;;;;;;5038858;28;20028;-70
2022/01/22 08:07:30;;;;;;;9.32;4.97;;;;;;;;;;5064819;28;20017;-72
2022/01/22 08:09:57;;;;;;;6.72;4.57;;;;;;;;;;5062478;28;20095;-70
2022/01/22 08:12:24;;;;;;;9.45;4.88;;;;;;;;;;5039338;28;20028;-70
2022/01/22 08:14:50;;;;;;;7.57;4.70;;;;;;;;;;5067933;28;20036;-70
2022/01/22 08:17:16;;;;;;;7.65;4.88;;;;;;;;;;5057074;28;20028;-70
2022/01/22 08:19:42;;;;;;;9.50;4.80;;;;;;;;;;5044852;28;20032;-71
2022/01/22 08:22:08;;;;;;;7.13;4.75;;;;;;;;;;5046732;28;20482;-71
2022/01/22 08:24:34;;;;;;;10.63;5.75;;;;;;;;;;5037200;28;20029;-71
2022/01/22 08:27:17;;;;;;;10.25;5.10;;;;;;;;;;5068231;28;20021;-70
2022/01/22 08:29:43;;;;;;;7.53;4.35;;;;;;;;;;5060926;28;20062;-70
2022/01/22 08:32:44;;;;;;;11.35;6.45;;;;;;;;;;5059174;28;20037;-71
2022/01/22 08:37:54;;;;;;;12.60;6.60;;;;;;;;;;5061553;28;20043;-69
2022/01/22 08:40:20;;;;;;;13.70;6.50;;;;;;;;;;5065844;28;20057;-71
2022/01/22 08:42:46;;;;;;;8.98;4.50;;;;;;;;;;5054658;28;20055;-70
2022/01/22 08:45:12;;;;;;;8.02;4.65;;;;;;;;;;5066778;28;20063;-70
2022/01/22 08:47:38;;;;;;;5.75;3.97;;;;;;;;;;5059537;28;20017;-71
2022/01/22 08:50:05;;;;;;;7.53;4.05;;;;;;;;;;5059188;28;20021;-69
2022/01/22 08:52:35;;;;;;;5.88;4.03;;;;;;;;;;5066150;28;20021;-72
2022/01/22 08:55:01;;;;;;;7.43;4.10;;;;;;;;;;5034615;28;20043;-70
2022/01/22 08:57:27;;;;;;;9.48;3.92;;;;;;;;;;5062584;28;20025;-71
2022/01/22 08:59:53;;;;;;;8.98;4.50;;;;;;;;;;5059574;28;20062;-70
2022/01/22 09:02:19;;;;;;;9.48;3.55;;;;;;;;;;5055247;28;20029;-71
2022/01/22 09:04:45;;;;;;;7.60;4.32;;;;;;;;;;5065479;28;20029;-75
2022/01/22 09:07:11;;;;;;;6.40;3.05;;;;;;;;;;5054286;28;20119;-75
2022/01/22 09:09:38;;;;;;;6.82;4.15;;;;;;;;;;5062817;28;20095;-72
2022/01/22 09:12:05;;;;;;;7.13;4.05;;;;;;;;;;5045645;28;20032;-71
2022/01/22 09:14:31;;;;;;;7.30;3.83;;;;;;;;;;5059253;28;20029;-71
2022/01/22 09:16:59;;;;;;;9.38;4.80;;;;;;;;;;5071969;28;20493;-72
2022/01/22 09:19:32;;;;;;;6.10;3.80;;;;;;;;;;5061816;28;20032;-71
2022/01/22 09:21:58;;;;;;;9.10;3.65;;;;;;;;;;5064291;28;20430;-70
2022/01/22 09:24:24;;;;;;;11.55;4.85;;;;;;;;;;5051575;28;20025;-71
2022/01/22 09:26:50;;;;;;;6.95;4.13;;;;;;;;;;5044882;28;20020;-69
2022/01/22 09:29:16;;;;;;;6.60;4.00;;;;;;;;;;5057793;28;20505;-72
2022/01/22 09:31:44;;;;;;;9.57;3.92;;;;;;;;;;5031179;28;20033;-73
2022/01/22 09:34:10;;;;;;;8.88;4.80;;;;;;;;;;5059973;28;20493;-70
2022/01/22 09:36:36;;;;;;;4.95;2.58;;;;;;;;;;5058513;28;20033;-71
2022/01/22 09:39:04;;;;;;;9.32;4.97;;;;;;;;;;5071245;28;20029;-71
2022/01/22 09:41:30;;;;;;;9.27;4.03;;;;;;;;;;5061785;28;20028;-71
2022/01/22 09:43:56;;;;;;;4.93;2.75;;;;;;;;;;5059639;28;20031;-72
2022/01/22 09:46:23;;;;;;;7.82;5.10;;;;;;;;;;5069243;28;20057;-71
2022/01/22 09:48:50;;;;;;;10.93;5.63;;;;;;;;;;5058223;28;20021;-73
2022/01/22 09:51:17;;;;;;;2.50;2.25;;;;;;;;;;5068908;28;20474;-71
2022/01/22 09:53:44;;;;;;;7.03;2.58;;;;;;;;;;5059287;28;20044;-71
2022/01/22 09:56:10;;;;;;;4.60;2.42;;;;;;;;;;5067079;28;20028;-72
2022/01/22 09:58:37;;;;;;;8.80;3.97;;;;;;;;;;5057791;28;20036;-72
2022/01/22 10:01:21;;;;;;;9.68;4.25;;;;;;;;;;5068388;28;20409;-71
2022/01/22 10:03:48;;;;;;;7.60;4.03;;;;;;;;;;5064216;28;20075;-72
2022/01/22 10:06:15;;;;;;;9.65;4.05;;;;;;;;;;5067063;28;20020;-72
2022/01/22 10:08:41;;;;;;;5.63;2.90;;;;;;;;;;5057428;28;20021;-72
2022/01/22 10:11:15;;;;;;;5.95;2.15;;;;;;;;;;5069984;28;20078;-72
2022/01/22 10:13:46;;;;;;;6.03;2.42;;;;;;;;;;5062527;28;20027;-70
2022/01/22 10:16:16;;;;;;;7.20;3.83;;;;;;;;;;5061038;28;20029;-70
2022/01/22 10:18:42;;;;;;;6.45;3.97;;;;;;;;;;5070527;28;20181;-71
2022/01/22 10:21:10;;;;;;;10.48;5.15;;;;;;;;;;5058150;28;20386;-72
2022/01/22 10:23:39;;;;;;;4.90;3.00;;;;;;;;;;5064316;28;20108;-71
2022/01/22 10:26:07;;;;;;;3.80;1.88;;;;;;;;;;5047996;28;20017;-71
2022/01/22 10:29:01;;;;;;;8.68;2.92;;;;;;;;;;5052872;28;20016;-71
2022/01/22 10:31:40;;;;;;;5.97;3.10;;;;;;;;;;5057240;28;20052;-69
2022/01/22 10:34:08;;;;;;;10.45;3.60;;;;;;;;;;5060956;28;20036;-71
2022/01/22 10:36:34;;;;;;;9.63;3.45;;;;;;;;;;5069698;28;20032;-71
2022/01/22 10:39:00;;;;;;;6.38;2.63;;;;;;;;;;5056893;28;20118;-72
2022/01/22 10:41:33;;;;;;;9.48;3.13;;;;;;;;;;5048960;28;20025;-72
2022/01/22 10:44:02;;;;;;;11.50;3.20;;;;;;;;;;5064423;28;20020;-72
2022/01/22 10:48:59;;;;;;;5.32;2.35;;;;;;;;;;5070112;28;20165;-72
2022/01/22 10:51:26;;;;;;;7.60;4.03;;;;;;;;;;5060062;28;20048;-71
2022/01/22 10:53:52;;;;;;;9.45;5.25;;;;;;;;;;5044690;28;20032;-71
2022/01/22 10:56:20;;;;;;;6.10;2.88;;;;;;;;;;5067187;28;20032;-68
2022/01/22 10:58:55;;;;;;;8.40;4.10;;;;;;;;;;5038495;28;20033;-71
2022/01/22 11:01:22;;;;;;;7.93;4.40;;;;;;;;;;5049054;28;20029;-70
2022/01/22 11:03:48;;;;;;;8.07;3.80;;;;;;;;;;5062478;28;20025;-69
2022/01/22 11:06:26;;;;;;;9.75;3.70;;;;;;;;;;5059841;28;20067;-71
2022/01/22 11:08:53;;;;;;;5.55;2.90;;;;;;;;;;5069547;28;20021;-70
2022/01/22 11:11:19;;;;;;;7.25;3.70;;;;;;;;;;5058635;28;20021;-71
2022/01/22 11:13:45;;;;;;;7.25;2.80;;;;;;;;;;5045739;28;20439;-71
2022/01/22 11:16:12;;;;;;;12.63;6.13;;;;;;;;;;5066127;28;20052;-72
2022/01/22 11:18:38;;;;;;;8.25;3.83;;;;;;;;;;5051488;28;20549;-68
2022/01/22 11:21:05;;;;;;;7.47;3.67;;;;;;;;;;5040230;28;20063;-71
2022/01/22 11:23:34;;;;;;;6.03;2.50;;;;;;;;;;5065007;28;20399;-71
2022/01/22 11:26:01;;;;;;;5.80;3.35;;;;;;;;;;5063940;28;20020;-71
2022/01/22 11:28:27;;;;;;;9.63;3.95;;;;;;;;;;5057748;28;20536;-68
2022/01/22 11:30:54;;;;;;;3.65;2.33;;;;;;;;;;5066297;28;20040;-71
2022/01/22 11:33:21;;;;;;;8.13;3.60;;;;;;;;;;5046680;28;20027;-71
2022/01/22 11:35:50;;;;;;;7.35;3.05;;;;;;;;;;5062489;28;20017;-73
2022/01/22 11:38:17;;;;;;;6.28;3.38;;;;;;;;;;5048190;28;20386;-74
2022/01/22 11:41:01;;;;;;;7.28;3.13;;;;;;;;;;5054890;28;20099;-72
2022/01/22 11:43:50;;;;;;;5.13;2.17;;;;;;;;;;5041016;28;20017;-72
2022/01/22 11:46:26;;;;;;;10.90;3.33;;;;;;;;;;5059088;28;20429;-72
2022/01/22 11:49:10;;;;;;;8.55;3.40;;;;;;;;;;5053573;28;20021;-71
2022/01/22 11:51:36;;;;;;;3.97;2.00;;;;;;;;;;5030913;28;20028;-71
2022/01/22 11:54:01;;;;;;;6.03;2.92;;;;;;;;;;5072768;22;20056;-71
2022/01/22 11:56:40;;;;;;;8.30;3.85;;;;;;;;;;5066884;28;20040;-70
2022/01/22 11:59:12;;;;;;;7.97;3.22;;;;;;;;;;5040044;28;20021;-71
2022/01/22 12:01:38;;;;;;;5.82;2.40;;;;;;;;;;5063848;28;20020;-70
2022/01/22 12:04:05;;;;;;;7.65;1.90;;;;;;;;;;5063297;28;20036;-69
2022/01/22 12:06:31;;;;;;;5.90;2.25;;;;;;;;;;5056422;28;20025;-70
2022/01/22 12:09:13;;;;;;;5.93;2.17;;;;;;;;;;5068430;28;20024;-70
2022/01/22 12:14:48;;;;;;;7.13;2.55;;;;;;;;;;5056153;28;20113;-70
2022/01/22 12:17:20;;;;;;;5.05;2.10;;;;;;;;;;5024401;28;20062;-70
2022/01/22 12:20:04;;;;;;;5.32;2.50;;;;;;;;;;5062478;28;20021;-70
2022/01/22 12:22:31;;;;;;;7.30;2.78;;;;;;;;;;5067262;28;20078;-70
2022/01/22 12:24:58;;;;;;;7.93;2.72;;;;;;;;;;5054683;28;20033;-70
2022/01/22 12:27:43;;;;;;;7.40;3.33;;;;;;;;;;5065469;28;20309;-70
2022/01/22 12:30:09;;;;;;;3.05;1.92;;;;;;;;;;5064065;28;20016;-70
2022/01/22 12:32:45;;;;;;;5.50;3.05;;;;;;;;;;5055178;28;20032;-71
2022/01/22 12:35:13;;;;;;;5.30;2.13;;;;;;;;;;5040567;28;20032;-71
2022/01/22 12:37:42;;;;;;;5.40;3.28;;;;;;;;;;5062866;28;20095;-71
2022/01/22 12:40:09;;;;;;;7.68;2.90;;;;;;;;;;5064138;28;20397;-70
2022/01/22 12:42:51;;;;;;;6.70;3.38;;;;;;;;;;5055039;28;20395;-69
2022/01/22 12:45:18;;;;;;;10.20;4.55;;;;;;;;;;5042298;28;20113;-70
2022/01/22 12:47:48;;;;;;;10.25;4.43;;;;;;;;;;5061653;28;20017;-69
2022/01/22 12:50:14;;;;;;;5.45;2.72;;;;;;;;;;5065362;28;20115;-69
2022/01/22 12:52:45;;;;;;;5.95;2.65;;;;;;;;;;5056246;28;20096;-68
2022/01/22 12:55:16;;;;;;;7.85;3.25;;;;;;;;;;5068231;28;20517;-71
2022/01/22 12:57:42;;;;;;;5.82;2.85;;;;;;;;;;5061436;28;20141;-70
2022/01/22 13:00:13;;;;;;;5.13;2.40;;;;;;;;;;5058997;28;20367;-70
2022/01/22 13:02:39;;;;;;;8.07;3.53;;;;;;;;;;5067404;28;20020;-70
2022/01/22 13:05:06;;;;;;;5.30;2.33;;;;;;;;;;5054281;28;20027;-70
2022/01/22 13:07:39;;;;;;;15.25;4.35;;;;;;;;;;5063763;28;20023;-69
2022/01/22 13:10:06;;;;;;;5.60;3.45;;;;;;;;;;5063004;28;20047;-72
2022/01/22 13:12:33;;;;;;;4.93;3.13;;;;;;;;;;5054683;28;20074;-70
2022/01/22 13:14:59;;;;;;;8.52;3.20;;;;;;;;;;5048030;28;20103;-69
2022/01/22 13:17:32;;;;;;;6.60;2.72;;;;;;;;;;5056342;28;20052;-70
2022/01/22 13:19:58;;;;;;;10.93;3.83;;;;;;;;;;5058891;28;20520;-71
2022/01/22 13:22:31;;;;;;;14.00;3.67;;;;;;;;;;5064624;28;20028;-69
2022/01/22 13:25:07;;;;;;;9.68;3.85;;;;;;;;;;5048193;28;20047;-70
2022/01/22 13:27:34;;;;;;;8.10;3.63;;;;;;;;;;5028644;28;20016;-71
2022/01/22 13:30:00;;;;;;;8.68;4.13;;;;;;;;;;5059451;28;20024;-72
2022/01/22 13:32:46;;;;;;;8.13;3.80;;;;;;;;;;5065942;28;20020;-70
2022/01/22 13:35:50;;;;;;;6.97;3.65;;;;;;;;;;5040384;28;20482;-70
2022/01/22 13:49:02;;;;;;;6.68;3.45;;;;;;;;;;5066931;28;20031;-69
2022/01/22 13:51:28;;;;;;;7.78;3.92;;;;;;;;;;5057635;28;20050;-70
2022/01/22 13:53:58;;;;;;;9.63;4.05;;;;;;;;;;5041071;28;20407;-69
2022/01/22 13:56:48;;;;;;;7.82;3.17;;;;;;;;;;5047348;28;20223;-69
2022/01/22 13:59:21;;;;;;;6.57;3.40;;;;;;;;;;5042524;28;20012;-70
2022/01/22 14:02:12;;;;;;;8.50;3.92;;;;;;;;;;5063785;28;20047;-68
2022/01/22 14:04:39;;;;;;;5.80;3.22;;;;;;;;;;5070481;28;20031;-71
2022/01/22 14:07:15;;;;;;;6.88;3.55;;;;;;;;;;5058183;28;20021;-70
2022/01/22 14:09:56;;;;;;;7.15;4.10;;;;;;;;;;5065785;28;20498;-69
2022/01/22 14:12:23;;;;;;;7.70;3.72;;;;;;;;;;5068605;28;20036;-70
2022/01/22 14:15:00;;;;;;;7.85;3.70;;;;;;;;;;5056905;28;20055;-69
2022/01/22 14:17:30;;;;;;;7.53;3.60;;;;;;;;;;5067583;28;20096;-69
2022/01/22 14:19:59;;;;;;;6.05;3.20;;;;;;;;;;5065501;28;20028;-70
2022/01/22 14:22:25;;;;;;;11.35;4.45;;;;;;;;;;5059170;28;20395;-68
2022/01/22 14:25:08;;;;;;;6.53;3.88;;;;;;;;;;5070259;28;20020;-71
2022/01/22 14:27:34;;;;;;;5.80;3.42;;;;;;;;;;5061948;28;20636;-70
2022/01/22 14:30:00;;;;;;;8.48;3.88;;;;;;;;;;5062627;28;20059;-68
2022/01/22 14:32:27;;;;;;;7.18;3.58;;;;;;;;;;5050667;28;20405;-69
2022/01/22 14:34:53;;;;;;;8.95;3.80;;;;;;;;;;5039644;28;20025;-70
2022/01/22 14:37:31;;;;;;;9.07;3.17;;;;;;;;;;5069039;28;20482;-69
2022/01/22 14:45:26;;;;;;;9.75;4.28;;;;;;;;;;5047225;28;20028;-70
2022/01/22 14:47:57;;;;;;;7.00;3.60;;;;;;;;;;5063282;28;20032;-69
2022/01/22 14:50:23;;;;;;;;;;;;;;;;;;5068883;28;20050;-72
2022/01/22 14:52:53;;;;;;;5.57;3.28;;;;;;;;;;5038690;28;19905;-68
2022/01/22 14:55:19;;;;;;;6.88;3.72;;;;;;;;;;5067393;28;20036;-68
2022/01/22 14:57:45;;;;;;;7.47;3.25;;;;;;;;;;5062530;28;20385;-68
2022/01/22 15:00:14;;;;;;;12.10;4.53;;;;;;;;;;5060434;28;20032;-69
2022/01/22 15:02:40;;;;;;;8.07;4.13;;;;;;;;;;5069687;28;20071;-68
2022/01/22 15:05:08;;;;;;;8.80;4.45;;;;;;;;;;5069065;28;20024;-69
2022/01/22 15:07:34;;;;;;;10.30;4.63;;;;;;;;;;5060803;28;20009;-68
2022/01/22 15:10:00;;;;;;;8.73;4.43;;;;;;;;;;5061361;28;20086;-71
2022/01/22 15:12:26;;;;;;;10.20;4.93;;;;;;;;;;5067904;28;20029;-70
2022/01/22 15:14:53;;;;;;;7.82;4.35;;;;;;;;;;5056411;28;20021;-72
2022/01/22 15:19:45;;;;;;;14.57;5.78;;;;;;;;;;5062320;28;20032;-69
2022/01/22 15:22:13;;;;;;;9.75;4.78;;;;;;;;;;5059791;28;20029;-70
2022/01/22 15:24:40;;;;;;;13.05;5.68;;;;;;;;;;5068714;28;20016;-70
2022/01/22 15:27:07;;;;;;;10.38;5.53;;;;;;;;;;5056648;28;20385;-68
2022/01/22 15:29:41;;;;;;;10.27;4.70;;;;;;;;;;5045538;28;20376;-69
2022/01/22 15:32:18;;;;;;;7.97;5.10;;;;;;;;;;5056990;28;20020;-68
2022/01/22 15:34:57;;;;;;;11.25;6.82;;;;;;;;;;5055940;28;20032;-69
2022/01/22 15:37:23;;;;;;;9.32;5.65;;;;;;;;;;5048473;28;20111;-70
2022/01/22 15:39:50;;;;;;;11.57;6.05;;;;;;;;;;5062245;28;20024;-70
2022/01/22 15:42:16;;;;;;;11.23;5.82;;;;;;;;;;5058768;28;20487;-70
2022/01/22 15:44:43;;;;;;;13.60;6.25;;;;;;;;;;5068387;28;20056;-66
2022/01/22 15:47:09;;;;;;;12.35;5.82;;;;;;;;;;5056742;28;20508;-67
2022/01/22 15:49:35;;;;;;;10.27;5.55;;;;;;;;;;5064472;28;20027;-68
2022/01/22 15:52:01;;;;;;;9.95;5.97;;;;;;;;;;5063210;28;20021;-69
2022/01/22 15:54:28;;;;;;;13.85;6.75;;;;;;;;;;5056567;28;20234;-69
2022/01/22 15:56:54;;;;;;;12.25;5.68;;;;;;;;;;5052892;28;20128;-68
2022/01/22 15:59:21;;;;;;;9.48;5.95;;;;;;;;;;5066152;28;20428;-70
2022/01/22 16:01:48;;;;;;;13.65;6.30;;;;;;;;;;5043554;28;20507;-69
2022/01/22 16:04:15;;;;;;;14.85;7.25;;;;;;;;;;5040415;28;20661;-68
2022/01/22 16:09:12;;;;;;;13.77;6.63;;;;;;;;;;5056045;28;20032;-70
2022/01/22 16:11:39;;;;;;;12.85;7.10;;;;;;;;;;5063539;28;20021;-69
2022/01/22 16:14:05;;;;;;;11.57;6.30;;;;;;;;;;5063364;28;20482;-69
2022/01/22 16:16:32;;;;;;;11.25;5.97;;;;;;;;;;5056040;28;20074;-67
2022/01/22 16:18:58;;;;;;;14.52;6.35;;;;;;;;;;5054593;28;20039;-68
2022/01/22 16:21:24;;;;;;;11.05;7.25;;;;;;;;;;5047319;28;20103;-70
2022/01/22 16:23:50;;;;;;;11.38;6.47;;;;;;;;;;5061291;28;20338;-69
2022/01/22 16:26:16;;;;;;;20.25;7.10;;;;;;;;;;5058265;28;20028;-69
2022/01/22 16:28:42;;;;;;;13.32;7.82;;;;;;;;;;5068194;28;20020;-68
2022/01/22 16:31:09;;;;;;;11.10;7.47;;;;;;;;;;5055763;28;20106;-69
2022/01/22 16:33:35;;;;;;;15.88;8.13;;;;;;;;;;5063449;28;20021;-67
2022/01/22 16:36:01;;;;;;;14.57;9.15;;;;;;;;;;5062877;28;20066;-69
2022/01/22 16:38:27;;;;;;;18.80;9.48;;;;;;;;;;5056817;28;20117;-69
2022/01/22 16:40:55;;;;;;;14.95;9.20;;;;;;;;;;5068062;28;20497;-69
2022/01/22 16:43:28;;;;;;;16.70;9.20;;;;;;;;;;5056627;28;20508;-68
2022/01/22 16:54:38;;;;;;;17.45;10.15;;;;;;;;;;5011034;28;20521;-68
2022/01/22 16:57:01;;;;;;;16.50;10.18;;;;;;;;;;5053601;28;20037;-69
2022/01/22 16:59:27;;;;;;;;;;;;;;;;;;5064897;28;20017;-67